createdAt,value
2022-10-14T00:02:02.131Z,12.20
2022-10-14T00:04:30.047Z,11.70
2022-10-14T00:06:57.090Z,13.82
2022-10-14T00:09:24.106Z,12.38
2022-10-14T00:11:51.029Z,14.30
2022-10-14T00:14:19.238Z,13.98
2022-10-14T00:16:52.118Z,13.70
2022-10-14T00:19:19.006Z,13.82
2022-10-14T00:21:46.104Z,14.38
2022-10-14T00:24:14.639Z,14.50
2022-10-14T00:26:41.665Z,12.95
2022-10-14T00:29:12.157Z,14.07
2022-10-14T00:31:39.237Z,13.07
2022-10-14T00:34:06.304Z,13.07
2022-10-14T00:36:33.491Z,15.80
2022-10-14T00:39:00.563Z,14.63
2022-10-14T00:41:29.445Z,14.98
2022-10-14T00:43:59.208Z,14.05
2022-10-14T00:46:32.496Z,16.88
2022-10-14T00:49:04.728Z,12.18
2022-10-14T00:51:31.673Z,13.90
2022-10-14T00:53:58.583Z,16.63
2022-10-14T00:56:26.327Z,16.67
2022-10-14T00:58:53.381Z,16.48
2022-10-14T01:01:20.845Z,15.18
2022-10-14T01:03:47.854Z,17.05
2022-10-14T01:06:51.456Z,15.05
2022-10-14T01:09:33.457Z,16.33
2022-10-14T01:15:14.323Z,17.35
2022-10-14T01:18:06.265Z,22.42
2022-10-14T01:20:42.513Z,18.05
2022-10-14T01:23:42.125Z,15.50
2022-10-14T01:26:30.965Z,16.10
2022-10-14T01:29:35.744Z,16.60
2022-10-14T01:32:05.786Z,15.77
2022-10-14T01:34:36.944Z,15.07
2022-10-14T01:37:06.085Z,16.85
2022-10-14T01:39:57.445Z,16.77
2022-10-14T01:42:29.518Z,15.45
2022-10-14T01:44:59.505Z,15.60
2022-10-14T01:47:27.242Z,14.82
2022-10-14T01:49:59.106Z,16.30
2022-10-14T01:52:31.029Z,14.88
2022-10-14T01:55:06.633Z,16.90
2022-10-14T01:57:34.605Z,16.30
2022-10-14T02:00:02.038Z,16.60
2022-10-14T02:02:40.788Z,16.80
2022-10-14T02:05:13.713Z,17.48
2022-10-14T02:07:43.101Z,16.58
2022-10-14T02:10:44.221Z,17.15
2022-10-14T02:13:32.484Z,16.92
2022-10-14T02:16:23.543Z,15.20
2022-10-14T02:19:22.674Z,18.48
2022-10-14T02:22:06.601Z,19.52
2022-10-14T02:24:38.075Z,15.52
2022-10-14T02:27:07.444Z,15.57
2022-10-14T02:29:34.804Z,17.80
2022-10-14T02:32:02.238Z,17.90
2022-10-14T02:34:29.272Z,24.30
2022-10-14T02:36:56.520Z,21.58
2022-10-14T02:39:31.185Z,18.60
2022-10-14T02:41:58.238Z,19.17
2022-10-14T02:44:25.159Z,20.80
2022-10-14T02:46:52.122Z,18.13
2022-10-14T02:49:19.125Z,19.27
2022-10-14T02:51:46.129Z,20.48
2022-10-14T02:54:13.036Z,17.98
2022-10-14T02:56:41.451Z,19.40
2022-10-14T02:59:08.565Z,20.70
2022-10-14T03:01:37.687Z,21.05
2022-10-14T03:04:06.363Z,21.07
2022-10-14T03:06:33.288Z,20.85
2022-10-14T03:09:00.516Z,20.15
2022-10-14T03:11:27.630Z,20.10
2022-10-14T03:14:01.346Z,20.60
2022-10-14T03:16:28.586Z,20.45
2022-10-14T03:18:55.946Z,18.88
2022-10-14T03:21:39.170Z,20.63
2022-10-14T03:24:09.932Z,20.67
2022-10-14T03:26:38.138Z,18.17
2022-10-14T03:29:05.741Z,18.88
2022-10-14T03:32:05.001Z,21.45
2022-10-14T03:34:55.335Z,20.02
2022-10-14T03:37:24.629Z,18.63
2022-10-14T03:39:54.690Z,17.27
2022-10-14T03:42:22.077Z,16.88
2022-10-14T03:44:50.307Z,19.52
2022-10-14T03:47:23.811Z,17.80
2022-10-14T03:49:51.110Z,18.13
2022-10-14T03:52:24.380Z,18.80
2022-10-14T03:55:03.863Z,25.35
2022-10-14T03:57:30.785Z,18.95
2022-10-14T03:59:59.503Z,19.52
2022-10-14T04:02:40.753Z,19.08
2022-10-14T04:05:12.637Z,18.92
2022-10-14T04:07:41.548Z,18.83
2022-10-14T04:10:09.844Z,17.15
2022-10-14T04:12:41.059Z,19.90
2022-10-14T04:15:13.840Z,17.00
2022-10-14T04:17:59.801Z,17.75
2022-10-14T04:20:28.961Z,20.73
2022-10-14T04:22:55.910Z,21.33
2022-10-14T04:25:23.427Z,18.38
2022-10-14T04:30:30.448Z,20.35
2022-10-14T04:32:58.687Z,19.70
2022-10-14T04:35:25.848Z,22.50
2022-10-14T04:37:56.284Z,18.27
2022-10-14T04:40:27.144Z,18.38
2022-10-14T04:42:56.574Z,18.67
2022-10-14T04:45:28.073Z,17.48
2022-10-14T04:48:00.515Z,20.40
2022-10-14T04:50:27.899Z,20.85
2022-10-14T04:53:13.889Z,18.52
2022-10-14T04:55:54.486Z,17.48
2022-10-14T04:58:21.594Z,19.40
2022-10-14T05:00:49.156Z,19.30
2022-10-14T05:03:29.633Z,19.08
2022-10-14T05:05:57.417Z,18.38
2022-10-14T05:08:24.490Z,18.08
2022-10-14T05:10:54.617Z,17.67
2022-10-14T05:13:35.851Z,17.63
2022-10-14T05:16:07.550Z,16.35
2022-10-14T05:18:34.973Z,18.48
2022-10-14T05:21:06.464Z,17.75
2022-10-14T05:23:53.314Z,18.17
2022-10-14T05:26:20.327Z,19.08
2022-10-14T05:28:48.972Z,17.75
2022-10-14T05:31:15.945Z,15.93
2022-10-14T05:33:50.239Z,16.52
2022-10-14T05:36:17.164Z,15.05
2022-10-14T05:38:44.450Z,16.52
2022-10-14T05:41:11.895Z,15.90
2022-10-14T05:43:39.820Z,16.27
2022-10-14T05:46:07.218Z,17.02
2022-10-14T05:48:38.433Z,15.45
2022-10-14T05:51:05.672Z,16.80
2022-10-14T05:53:36.232Z,15.13
2022-10-14T05:56:08.110Z,16.93
2022-10-14T05:58:37.640Z,16.73
2022-10-14T06:01:06.787Z,21.08
2022-10-14T06:03:33.852Z,14.60
2022-10-14T06:06:01.002Z,15.48
2022-10-14T06:08:30.143Z,14.93
2022-10-14T06:10:57.227Z,15.68
2022-10-14T06:13:24.171Z,15.80
2022-10-14T06:15:51.989Z,13.75
2022-10-14T06:18:18.905Z,15.73
2022-10-14T06:20:52.535Z,16.45
2022-10-14T06:23:19.406Z,13.80
2022-10-14T06:25:46.408Z,14.43
2022-10-14T06:28:13.318Z,16.15
2022-10-14T06:30:40.261Z,15.95
2022-10-14T06:33:07.391Z,14.73
2022-10-14T06:35:34.277Z,17.25
2022-10-14T06:38:01.323Z,15.68
2022-10-14T06:40:28.589Z,16.38
2022-10-14T06:42:55.599Z,15.18
2022-10-14T06:45:22.481Z,15.00
2022-10-14T06:47:49.544Z,15.93
2022-10-14T06:50:16.594Z,17.95
2022-10-14T06:52:45.857Z,14.95
2022-10-14T06:55:12.971Z,14.65
2022-10-14T06:57:39.865Z,13.15
2022-10-14T07:00:07.458Z,15.35
2022-10-14T07:02:35.187Z,14.82
2022-10-14T07:05:02.227Z,15.65
2022-10-14T07:07:29.120Z,16.85
2022-10-14T07:09:56.020Z,15.07
2022-10-14T07:12:23.147Z,13.35
2022-10-14T07:14:50.470Z,14.70
2022-10-14T07:17:17.359Z,13.70
2022-10-14T07:19:44.369Z,15.43
2022-10-14T07:22:11.466Z,12.05
2022-10-14T07:24:38.392Z,16.05
2022-10-14T07:27:05.573Z,14.15
2022-10-14T07:29:33.022Z,16.55
2022-10-14T07:31:59.888Z,13.93
2022-10-14T07:34:27.391Z,16.38
2022-10-14T07:36:54.367Z,13.80
2022-10-14T07:39:21.251Z,13.88
2022-10-14T07:41:48.538Z,13.57
2022-10-14T07:44:16.926Z,12.85
2022-10-14T07:46:44.678Z,13.32
2022-10-14T07:49:14.461Z,14.10
2022-10-14T07:51:41.362Z,13.15
2022-10-14T07:54:09.977Z,11.77
2022-10-14T07:56:37.916Z,11.27
2022-10-14T07:59:04.894Z,11.65
2022-10-14T08:01:35.591Z,11.63
2022-10-14T08:04:03.752Z,11.10
2022-10-14T08:06:30.640Z,9.73
2022-10-14T08:08:57.568Z,12.95
2022-10-14T08:11:26.384Z,11.80
2022-10-14T08:13:53.381Z,12.25
2022-10-14T08:16:24.792Z,9.88
2022-10-14T08:18:52.184Z,10.15
2022-10-14T08:21:20.012Z,9.48
2022-10-14T08:23:47.254Z,9.15
2022-10-14T08:26:21.609Z,9.48
2022-10-14T08:28:49.307Z,11.30
2022-10-14T08:31:16.346Z,10.45
2022-10-14T08:33:43.477Z,9.27
2022-10-14T08:36:10.741Z,11.35
2022-10-14T08:38:37.778Z,9.75
2022-10-14T08:41:14.789Z,9.43
2022-10-14T08:44:14.328Z,11.27
2022-10-14T08:46:49.410Z,13.32
2022-10-14T08:49:51.228Z,11.45
2022-10-14T08:52:22.306Z,10.73
2022-10-14T08:54:51.622Z,10.02
2022-10-14T08:57:20.666Z,11.48
2022-10-14T08:59:47.753Z,8.57
2022-10-14T09:02:47.568Z,9.88
2022-10-14T09:05:15.976Z,11.07
2022-10-14T09:07:43.316Z,8.95
2022-10-14T09:10:16.038Z,10.25
2022-10-14T09:12:43.101Z,8.07
2022-10-14T09:15:19.357Z,10.88
2022-10-14T09:17:50.871Z,11.52
2022-10-14T09:20:20.833Z,10.75
2022-10-14T09:22:57.961Z,14.45
2022-10-14T09:25:24.876Z,9.13
2022-10-14T09:27:51.964Z,9.45
2022-10-14T09:30:19.015Z,9.45
2022-10-14T09:32:51.277Z,11.68
2022-10-14T09:35:32.560Z,9.30
2022-10-14T09:37:59.800Z,8.85
2022-10-14T09:40:46.276Z,11.05
2022-10-14T09:43:19.715Z,8.55
2022-10-14T09:46:01.977Z,8.30
2022-10-14T09:48:29.039Z,10.75
2022-10-14T09:50:57.227Z,8.82
2022-10-14T09:53:32.025Z,7.18
2022-10-14T09:56:00.579Z,8.38
2022-10-14T09:58:32.267Z,7.68
2022-10-14T10:01:00.838Z,8.95
2022-10-14T10:03:33.006Z,9.35
2022-10-14T10:06:13.549Z,10.25
2022-10-14T10:09:01.543Z,9.52
2022-10-14T10:11:38.286Z,9.43
2022-10-14T10:14:27.262Z,7.32
2022-10-14T10:17:13.128Z,8.10
2022-10-14T10:19:52.718Z,9.32
2022-10-14T10:25:12.644Z,9.45
2022-10-14T10:27:41.456Z,7.60
2022-10-14T10:30:29.053Z,7.03
2022-10-14T10:33:26.625Z,7.10
2022-10-14T10:36:06.638Z,8.70
2022-10-14T10:39:00.772Z,7.22
2022-10-14T10:42:01.292Z,6.40
2022-10-14T10:44:40.550Z,7.00
2022-10-14T10:47:39.448Z,5.80
2022-10-14T10:50:23.202Z,8.95
2022-10-14T10:53:01.273Z,7.07
2022-10-14T10:55:37.840Z,7.50
2022-10-14T10:58:29.282Z,6.70
2022-10-14T11:01:02.385Z,7.55
2022-10-14T11:03:44.538Z,6.20
2022-10-14T11:06:47.029Z,5.97
2022-10-14T11:09:43.446Z,6.97
2022-10-14T11:12:21.013Z,8.23
2022-10-14T11:15:31.161Z,8.90
2022-10-14T11:18:08.213Z,11.43
2022-10-14T11:20:45.102Z,8.75
2022-10-14T11:23:35.068Z,7.60
2022-10-14T11:26:30.138Z,7.38
2022-10-14T11:29:11.316Z,8.75
2022-10-14T11:31:46.775Z,8.45
2022-10-14T11:34:15.966Z,11.35
2022-10-14T11:36:52.410Z,7.78
2022-10-14T11:39:42.229Z,10.43
2022-10-14T11:42:54.703Z,9.68
2022-10-14T11:45:43.030Z,8.25
2022-10-14T11:48:37.025Z,8.25
2022-10-14T11:51:37.117Z,9.60
2022-10-14T11:54:16.752Z,8.02
2022-10-14T11:57:04.138Z,7.95
2022-10-14T11:59:51.068Z,7.70
2022-10-14T12:02:39.631Z,6.53
2022-10-14T12:05:44.106Z,8.35
2022-10-14T12:10:55.724Z,6.95
2022-10-14T12:13:32.259Z,7.90
2022-10-14T12:16:01.301Z,5.75
2022-10-14T12:18:29.592Z,7.63
2022-10-14T12:21:18.815Z,10.68
2022-10-14T12:23:56.758Z,8.38
2022-10-14T12:26:23.691Z,8.35
2022-10-14T12:28:52.866Z,8.05
2022-10-14T12:31:39.599Z,6.85
2022-10-14T12:34:13.906Z,7.05
2022-10-14T12:36:42.095Z,7.05
2022-10-14T12:39:18.352Z,8.40
2022-10-14T12:41:55.011Z,9.82
2022-10-14T12:44:34.002Z,6.45
2022-10-14T12:47:00.906Z,7.40
2022-10-14T12:49:35.238Z,8.32
2022-10-14T12:52:07.913Z,7.05
2022-10-14T12:54:36.097Z,8.27
2022-10-14T12:57:15.477Z,7.68
2022-10-14T12:59:43.446Z,10.05
2022-10-14T13:02:45.660Z,7.82
2022-10-14T13:05:43.144Z,7.40
2022-10-14T13:08:25.838Z,9.20
2022-10-14T13:10:55.949Z,7.07
2022-10-14T13:14:01.472Z,7.63
2022-10-14T13:16:28.476Z,5.28
2022-10-14T13:19:02.487Z,6.45
2022-10-14T13:21:32.273Z,6.85
2022-10-14T13:24:01.034Z,4.38
2022-10-14T13:26:36.145Z,5.70
2022-10-14T13:29:31.124Z,6.45
2022-10-14T13:32:04.016Z,6.20
2022-10-14T13:34:31.043Z,8.27
2022-10-14T13:37:02.610Z,6.15
2022-10-14T13:39:32.692Z,6.25
2022-10-14T13:42:00.146Z,6.00
2022-10-14T13:44:27.169Z,6.50
2022-10-14T13:46:54.283Z,9.70
2022-10-14T13:49:35.829Z,7.20
2022-10-14T13:52:08.045Z,6.55
2022-10-14T13:54:35.298Z,6.47
2022-10-14T14:00:39.446Z,6.53
2022-10-14T14:02:56.719Z,6.38
2022-10-14T14:05:27.062Z,5.32
2022-10-14T14:11:03.781Z,4.75
2022-10-14T14:13:33.030Z,5.22
2022-10-14T14:18:49.261Z,6.47
2022-10-14T14:21:23.921Z,4.78
2022-10-14T14:23:51.610Z,7.07
2022-10-14T14:26:19.742Z,6.32
2022-10-14T14:28:47.652Z,5.07
2022-10-14T14:31:18.832Z,5.50
2022-10-14T14:33:46.627Z,5.80
2022-10-14T14:36:27.602Z,6.57
2022-10-14T14:39:01.591Z,8.00
2022-10-14T14:41:32.110Z,5.97
2022-10-14T14:46:51.248Z,5.78
2022-10-14T14:49:22.950Z,5.32
2022-10-14T14:54:19.920Z,8.38
2022-10-14T14:56:49.954Z,7.13
2022-10-14T14:59:36.779Z,5.93
2022-10-14T15:02:11.303Z,6.13
2022-10-14T15:04:38.679Z,7.07
2022-10-14T15:07:11.942Z,5.32
2022-10-14T15:09:54.717Z,5.85
2022-10-14T15:12:23.192Z,7.22
2022-10-14T15:14:52.107Z,5.82
2022-10-14T15:17:31.528Z,5.75
2022-10-14T15:20:29.969Z,7.28
2022-10-14T15:22:57.235Z,11.07
2022-10-14T15:25:31.320Z,7.05
2022-10-14T15:28:02.333Z,6.70
2022-10-14T15:30:41.910Z,6.82
2022-10-14T15:33:22.614Z,7.18
2022-10-14T15:36:01.897Z,6.38
2022-10-14T15:38:29.397Z,6.38
2022-10-14T15:40:56.449Z,8.00
2022-10-14T15:43:24.935Z,6.47
2022-10-14T15:48:52.618Z,9.43
2022-10-14T15:51:24.442Z,6.53
2022-10-14T15:56:22.428Z,6.93
2022-10-14T15:58:49.893Z,6.40
2022-10-14T16:01:26.950Z,5.82
2022-10-14T16:03:57.146Z,6.30
2022-10-14T16:06:27.973Z,8.43
2022-10-14T16:08:57.135Z,7.45
2022-10-14T16:11:30.556Z,8.20
2022-10-14T16:13:59.661Z,7.95
2022-10-14T16:16:51.216Z,8.05
2022-10-14T16:19:21.159Z,6.78
2022-10-14T16:21:49.842Z,6.50
2022-10-14T16:24:18.560Z,6.68
2022-10-14T16:26:45.553Z,6.65
2022-10-14T16:29:15.015Z,10.50
2022-10-14T16:31:42.049Z,7.82
2022-10-14T16:34:09.654Z,9.32
2022-10-14T16:36:38.146Z,10.32
2022-10-14T16:39:05.237Z,7.47
2022-10-14T16:41:32.464Z,8.98
2022-10-14T16:43:59.425Z,6.43
2022-10-14T16:46:46.816Z,8.88
2022-10-14T16:49:14.450Z,8.27
2022-10-14T16:51:44.692Z,7.30
2022-10-14T16:54:11.747Z,7.85
2022-10-14T16:56:55.111Z,7.93
2022-10-14T16:59:22.846Z,7.53
2022-10-14T17:01:51.226Z,9.80
2022-10-14T17:04:23.581Z,8.30
2022-10-14T17:06:55.653Z,7.38
2022-10-14T17:12:01.491Z,15.18
2022-10-14T17:14:31.490Z,8.50
2022-10-14T17:16:59.739Z,7.93
2022-10-14T17:19:27.448Z,9.88
2022-10-14T17:21:55.181Z,22.40
2022-10-14T17:24:23.381Z,10.80
2022-10-14T17:26:50.571Z,11.93
2022-10-14T17:29:17.663Z,7.60
2022-10-14T17:31:46.144Z,7.80
2022-10-14T17:34:13.902Z,6.57
2022-10-14T17:36:41.723Z,7.60
2022-10-14T17:39:16.389Z,6.00
2022-10-14T17:41:48.413Z,7.53
2022-10-14T17:44:15.584Z,6.28
2022-10-14T17:46:43.164Z,7.05
2022-10-14T17:49:10.091Z,6.30
2022-10-14T17:51:37.778Z,4.50
2022-10-14T17:54:06.291Z,5.35
2022-10-14T17:56:34.063Z,5.90
2022-10-14T17:59:03.404Z,6.13
2022-10-14T18:01:37.631Z,5.30
2022-10-14T18:04:17.686Z,5.70
2022-10-14T18:06:45.388Z,5.50
2022-10-14T18:09:12.450Z,5.57
2022-10-14T18:14:34.115Z,6.85
2022-10-14T18:17:01.921Z,6.03
2022-10-14T18:19:29.306Z,5.57
2022-10-14T18:21:56.425Z,6.28
2022-10-14T18:24:23.610Z,5.93
2022-10-14T18:26:51.159Z,7.13
2022-10-14T18:29:18.131Z,6.80
2022-10-14T18:31:45.090Z,7.80
2022-10-14T18:34:12.206Z,7.10
2022-10-14T18:36:39.160Z,7.80
2022-10-14T18:39:08.179Z,6.55
2022-10-14T18:41:37.146Z,7.13
2022-10-14T18:44:04.987Z,7.30
2022-10-14T18:46:33.980Z,6.75
2022-10-14T18:49:01.320Z,6.82
2022-10-14T18:51:30.165Z,6.65
2022-10-14T18:53:59.264Z,6.90
2022-10-14T18:56:27.960Z,6.97
2022-10-14T18:58:59.960Z,7.70
2022-10-14T19:01:27.704Z,8.75
2022-10-14T19:03:54.772Z,6.82
2022-10-14T19:06:22.189Z,6.88
2022-10-14T19:08:49.350Z,6.47
2022-10-14T19:11:20.368Z,7.00
2022-10-14T19:13:52.031Z,6.10
2022-10-14T19:16:29.887Z,8.73
2022-10-14T19:19:07.870Z,8.85
2022-10-14T19:21:34.989Z,8.68
2022-10-14T19:24:02.448Z,7.03
2022-10-14T19:26:31.320Z,8.00
2022-10-14T19:28:59.274Z,8.75
2022-10-14T19:31:27.777Z,7.75
2022-10-14T19:33:55.066Z,6.85
2022-10-14T19:36:23.333Z,6.63
2022-10-14T19:38:57.752Z,7.63
2022-10-14T19:41:25.647Z,7.30
2022-10-14T19:43:53.740Z,8.80
2022-10-14T19:46:23.308Z,7.93
2022-10-14T19:48:50.413Z,8.43
2022-10-14T19:51:18.248Z,8.25
2022-10-14T19:53:45.641Z,8.02
2022-10-14T19:56:12.827Z,7.22
2022-10-14T19:58:43.800Z,8.55
2022-10-14T20:01:16.204Z,9.40
2022-10-14T20:03:43.322Z,9.20
2022-10-14T20:06:10.694Z,9.05
2022-10-14T20:08:37.665Z,9.75
2022-10-14T20:11:08.790Z,9.48
2022-10-14T20:13:37.582Z,11.38
2022-10-14T20:16:05.339Z,11.35
2022-10-14T20:18:32.496Z,12.43
2022-10-14T20:21:01.341Z,11.68
2022-10-14T20:23:28.430Z,10.93
2022-10-14T20:26:02.449Z,11.85
2022-10-14T20:28:29.641Z,10.68
2022-10-14T20:30:57.478Z,9.27
2022-10-14T20:33:24.857Z,9.68
2022-10-14T20:36:10.483Z,9.55
2022-10-14T20:38:38.166Z,9.73
2022-10-14T20:41:18.786Z,8.60
2022-10-14T20:43:45.947Z,9.35
2022-10-14T20:46:13.101Z,11.35
2022-10-14T20:48:40.002Z,10.38
2022-10-14T20:51:08.132Z,9.90
2022-10-14T20:53:35.427Z,9.55
2022-10-14T20:56:03.847Z,12.10
2022-10-14T20:58:30.790Z,13.00
2022-10-14T21:01:24.490Z,10.13
2022-10-14T21:03:51.614Z,8.82
2022-10-14T21:06:20.169Z,9.00
2022-10-14T21:08:49.399Z,8.25
2022-10-14T21:11:17.547Z,9.60
2022-10-14T21:13:49.247Z,8.27
2022-10-14T21:16:17.149Z,9.70
2022-10-14T21:18:55.196Z,8.27
2022-10-14T21:21:28.021Z,9.25
2022-10-14T21:23:55.445Z,8.55
2022-10-14T21:26:22.610Z,8.25
2022-10-14T21:28:49.806Z,8.40
2022-10-14T21:31:19.026Z,7.95
2022-10-14T21:33:47.846Z,8.80
2022-10-14T21:36:15.587Z,7.28
2022-10-14T21:38:42.647Z,7.43
2022-10-14T21:41:09.664Z,7.57
2022-10-14T21:43:37.050Z,8.23
2022-10-14T21:46:05.221Z,7.90
2022-10-14T21:48:32.164Z,8.32
2022-10-14T21:51:07.049Z,7.85
2022-10-14T21:53:34.380Z,8.35
2022-10-14T21:56:01.375Z,9.10
2022-10-14T21:58:28.487Z,7.53
2022-10-14T22:01:34.385Z,7.20
2022-10-14T22:04:05.637Z,7.50
2022-10-14T22:06:36.030Z,9.10
2022-10-14T22:09:04.849Z,9.60
2022-10-14T22:11:39.865Z,8.07
2022-10-14T22:14:08.709Z,8.60
2022-10-14T22:16:35.856Z,11.60
2022-10-14T22:19:03.502Z,9.05
2022-10-14T22:21:31.670Z,8.73
2022-10-14T22:23:59.013Z,7.30
2022-10-14T22:26:27.216Z,8.77
2022-10-14T22:29:08.028Z,7.60
2022-10-14T22:31:35.455Z,8.90
2022-10-14T22:34:04.529Z,8.43
2022-10-14T22:36:32.607Z,7.50
2022-10-14T22:39:00.807Z,8.88
2022-10-14T22:41:33.968Z,8.38
2022-10-14T22:44:02.653Z,8.82
2022-10-14T22:46:30.906Z,10.77
2022-10-14T22:48:58.073Z,8.50
2022-10-14T22:51:30.225Z,10.57
2022-10-14T22:53:57.184Z,9.25
2022-10-14T22:56:25.318Z,8.88
2022-10-14T22:58:54.015Z,7.68
2022-10-14T23:01:21.573Z,6.90
2022-10-14T23:03:48.837Z,7.88
2022-10-14T23:06:16.073Z,8.07
2022-10-14T23:08:43.431Z,8.88
2022-10-14T23:11:15.313Z,7.57
2022-10-14T23:16:12.249Z,7.32
2022-10-14T23:18:39.306Z,6.05
2022-10-14T23:21:11.058Z,8.18
2022-10-14T23:23:38.129Z,10.02
2022-10-14T23:26:05.644Z,9.52
2022-10-14T23:28:32.690Z,7.28
2022-10-14T23:30:59.618Z,7.78
2022-10-14T23:33:26.549Z,7.30
2022-10-14T23:35:53.637Z,7.18
2022-10-14T23:38:20.755Z,7.95
2022-10-14T23:40:47.664Z,7.53
2022-10-14T23:43:14.611Z,8.25
2022-10-14T23:45:41.676Z,8.40
2022-10-14T23:48:08.801Z,8.38
2022-10-14T23:50:35.672Z,6.80
2022-10-14T23:53:02.711Z,7.32
2022-10-14T23:55:29.654Z,7.40
2022-10-14T23:57:56.555Z,9.15
